createdAt,value
2018-05-27T00:00:37.772Z,67.71
2018-05-27T00:01:37.777Z,68.68
2018-05-27T00:02:37.783Z,68.68
2018-05-27T00:03:37.790Z,68.29
2018-05-27T00:04:37.794Z,68.87
2018-05-27T00:05:37.800Z,68.77
2018-05-27T00:06:37.805Z,68.58
2018-05-27T00:07:37.811Z,68.87
2018-05-27T00:08:37.816Z,69.25
2018-05-27T00:09:37.822Z,69.06
2018-05-27T00:10:37.827Z,68.38
2018-05-27T00:11:37.834Z,68.38
2018-05-27T00:12:37.839Z,68.29
2018-05-27T00:13:37.844Z,68.29
2018-05-27T00:14:37.849Z,69.25
2018-05-27T00:15:37.855Z,69.25
2018-05-27T00:16:37.862Z,69.35
2018-05-27T00:17:37.866Z,68.68
2018-05-27T00:18:37.873Z,68.87
2018-05-27T00:19:37.881Z,68.68
2018-05-27T00:20:37.883Z,69.54
2018-05-27T00:21:37.888Z,69.25
2018-05-27T00:22:37.893Z,69.73
2018-05-27T00:23:37.899Z,69.70
2018-05-27T00:24:37.904Z,69.73
2018-05-27T00:25:37.911Z,69.54
2018-05-27T00:26:37.915Z,69.54
2018-05-27T00:27:37.921Z,69.54
2018-05-27T00:28:37.927Z,70.21
2018-05-27T00:29:37.932Z,70.31
2018-05-27T00:30:37.937Z,69.83
2018-05-27T00:31:37.943Z,70.28
2018-05-27T00:32:37.952Z,70.37
2018-05-27T00:33:37.954Z,70.28
2018-05-27T00:34:37.959Z,70.56
2018-05-27T00:35:37.964Z,70.31
2018-05-27T00:36:37.969Z,71.04
2018-05-27T00:37:37.975Z,70.76
2018-05-27T00:38:37.980Z,71.24
2018-05-27T00:39:37.985Z,71.34
2018-05-27T00:40:37.991Z,71.14
2018-05-27T00:41:37.997Z,70.95
2018-05-27T00:42:38.002Z,71.62
2018-05-27T00:43:38.007Z,71.43
2018-05-27T00:44:38.012Z,71.43
2018-05-27T00:45:38.019Z,71.72
2018-05-27T00:46:38.024Z,71.72
2018-05-27T00:47:38.028Z,71.62
2018-05-27T00:48:38.033Z,71.72
2018-05-27T00:49:38.040Z,71.62
2018-05-27T00:50:38.042Z,71.34
2018-05-27T00:51:38.049Z,71.24
2018-05-27T00:52:38.053Z,71.72
2018-05-27T00:53:38.058Z,72.01
2018-05-27T00:54:38.063Z,72.01
2018-05-27T00:55:38.069Z,71.91
2018-05-27T00:56:38.075Z,72.11
2018-05-27T00:57:38.080Z,72.01
2018-05-27T00:58:38.085Z,72.45
2018-05-27T00:59:38.090Z,72.74
2018-05-27T01:00:38.094Z,73.13
2018-05-27T01:01:38.101Z,73.13
2018-05-27T01:02:38.105Z,72.55
2018-05-27T01:03:38.110Z,73.13
2018-05-27T01:04:38.115Z,73.13
2018-05-27T01:05:38.125Z,73.42
2018-05-27T01:06:38.125Z,73.03
2018-05-27T01:07:38.130Z,72.94
2018-05-27T01:08:38.137Z,73.32
2018-05-27T01:09:38.142Z,72.84
2018-05-27T01:10:38.145Z,72.74
2018-05-27T01:11:38.151Z,72.55
2018-05-27T01:12:38.157Z,72.45
2018-05-27T01:13:38.161Z,72.55
2018-05-27T01:14:38.166Z,72.65
2018-05-27T01:15:38.171Z,72.65
2018-05-27T01:16:38.176Z,72.74
2018-05-27T01:17:38.181Z,72.74
2018-05-27T01:18:38.187Z,72.01
2018-05-27T01:19:38.189Z,71.97
2018-05-27T01:20:38.195Z,72.11
2018-05-27T01:21:38.202Z,72.36
2018-05-27T01:22:38.208Z,72.39
2018-05-27T01:23:38.210Z,72.55
2018-05-27T01:24:38.216Z,73.03
2018-05-27T01:25:38.220Z,73.03
2018-05-27T01:26:38.224Z,73.13
2018-05-27T01:27:38.231Z,73.03
2018-05-27T01:28:38.235Z,73.03
2018-05-27T01:29:38.239Z,73.13
2018-05-27T01:30:38.244Z,73.13
2018-05-27T01:31:38.250Z,73.03
2018-05-27T01:32:38.253Z,73.03
2018-05-27T01:33:38.262Z,72.74
2018-05-27T01:34:38.263Z,73.03
2018-05-27T01:35:38.267Z,73.42
2018-05-27T01:36:38.274Z,73.71
2018-05-27T01:37:38.280Z,73.71
2018-05-27T01:38:38.283Z,73.61
2018-05-27T01:39:38.288Z,73.51
2018-05-27T01:40:38.293Z,73.80
2018-05-27T01:41:38.298Z,73.61
2018-05-27T01:42:38.302Z,73.61
2018-05-27T01:43:38.308Z,73.61
2018-05-27T01:44:38.311Z,73.80
2018-05-27T01:45:38.317Z,73.71
2018-05-27T01:46:38.324Z,73.99
2018-05-27T01:47:38.326Z,74.29
2018-05-27T01:48:38.331Z,74.48
2018-05-27T01:49:38.337Z,73.90
2018-05-27T01:50:38.341Z,74.29
2018-05-27T01:51:38.345Z,73.90
2018-05-27T01:52:38.352Z,74.29
2018-05-27T01:53:38.356Z,74.48
2018-05-27T01:54:38.360Z,74.19
2018-05-27T01:55:38.365Z,74.76
2018-05-27T01:56:38.375Z,74.63
2018-05-27T01:57:38.374Z,74.54
2018-05-27T01:58:38.379Z,75.40
2018-05-27T01:59:38.383Z,75.40
2018-05-27T02:00:38.392Z,75.79
2018-05-27T02:01:38.396Z,75.59
2018-05-27T02:02:38.398Z,75.69
2018-05-27T02:03:38.403Z,75.59
2018-05-27T02:04:38.408Z,75.88
2018-05-27T02:05:38.413Z,75.59
2018-05-27T02:06:38.416Z,76.07
2018-05-27T02:07:38.421Z,75.98
2018-05-27T02:08:38.427Z,75.94
2018-05-27T02:09:38.430Z,76.04
2018-05-27T02:10:38.439Z,76.04
2018-05-27T02:11:38.441Z,76.04
2018-05-27T02:12:38.451Z,76.04
2018-05-27T02:13:38.450Z,76.04
2018-05-27T02:14:38.454Z,76.23
2018-05-27T02:15:38.458Z,76.32
2018-05-27T02:16:38.465Z,76.90
2018-05-27T02:17:38.469Z,76.71
2018-05-27T02:18:38.472Z,76.81
2018-05-27T02:19:38.478Z,77.09
2018-05-27T02:20:38.481Z,77.58
2018-05-27T02:21:38.488Z,77.29
2018-05-27T02:22:38.491Z,77.67
2018-05-27T02:23:38.495Z,77.67
2018-05-27T02:24:38.501Z,77.96
2018-05-27T02:25:38.505Z,77.86
2018-05-27T02:26:38.509Z,77.67
2018-05-27T02:27:38.514Z,78.44
2018-05-27T02:28:38.519Z,78.25
2018-05-27T02:29:38.523Z,77.96
2018-05-27T02:30:38.527Z,78.25
2018-05-27T02:31:38.533Z,78.34
2018-05-27T02:32:38.536Z,77.67
2018-05-27T02:33:38.547Z,78.02
2018-05-27T02:34:38.546Z,78.11
2018-05-27T02:35:38.550Z,77.86
2018-05-27T02:36:38.560Z,77.83
2018-05-27T02:37:38.559Z,78.21
2018-05-27T02:38:38.562Z,78.34
2018-05-27T02:39:38.569Z,78.73
2018-05-27T02:40:38.573Z,78.34
2018-05-27T02:41:38.577Z,77.76
2018-05-27T02:42:38.582Z,78.02
2018-05-27T02:43:38.585Z,77.96
2018-05-27T02:44:38.594Z,78.06
2018-05-27T02:45:38.594Z,78.06
2018-05-27T02:46:38.598Z,78.06
2018-05-27T02:47:38.602Z,78.25
2018-05-27T02:48:38.608Z,78.06
2018-05-27T02:49:38.610Z,77.76
2018-05-27T02:50:38.615Z,77.67
2018-05-27T02:51:38.620Z,78.25
2018-05-27T02:52:38.626Z,78.15
2018-05-27T02:53:38.629Z,77.86
2018-05-27T02:54:38.633Z,78.06
2018-05-27T02:55:38.638Z,78.53
2018-05-27T02:56:38.641Z,78.53
2018-05-27T02:57:38.647Z,78.25
2018-05-27T02:58:38.653Z,78.53
2018-05-27T02:59:38.654Z,78.83
2018-05-27T03:00:38.659Z,78.83
2018-05-27T03:01:38.664Z,78.63
2018-05-27T03:02:38.668Z,78.73
2018-05-27T03:03:38.675Z,78.83
2018-05-27T03:04:38.678Z,78.73
2018-05-27T03:05:38.683Z,78.83
2018-05-27T03:06:38.685Z,78.73
2018-05-27T03:07:38.690Z,78.73
2018-05-27T03:08:38.695Z,78.73
2018-05-27T03:09:38.699Z,78.25
2018-05-27T03:10:38.704Z,78.34
2018-05-27T03:11:38.712Z,78.34
2018-05-27T03:12:38.712Z,78.53
2018-05-27T03:13:38.717Z,78.73
2018-05-27T03:14:38.720Z,78.73
2018-05-27T03:15:38.725Z,78.83
2018-05-27T03:16:38.729Z,78.73
2018-05-27T03:17:38.741Z,79.21
2018-05-27T03:18:38.736Z,79.11
2018-05-27T03:19:38.741Z,79.60
2018-05-27T03:20:38.747Z,79.60
2018-05-27T03:21:38.750Z,79.65
2018-05-27T03:22:38.755Z,79.21
2018-05-27T03:23:38.760Z,79.46
2018-05-27T03:24:38.763Z,79.50
2018-05-27T03:25:38.770Z,79.94
2018-05-27T03:26:38.773Z,80.13
2018-05-27T03:27:38.776Z,80.13
2018-05-27T03:28:38.781Z,80.32
2018-05-27T03:29:38.786Z,80.22
2018-05-27T03:30:38.790Z,79.94
2018-05-27T03:31:38.793Z,80.13
2018-05-27T03:32:38.820Z,80.13
2018-05-27T03:33:38.804Z,80.32
2018-05-27T03:34:38.809Z,80.32
2018-05-27T03:35:38.811Z,79.94
2018-05-27T03:36:38.815Z,80.32
2018-05-27T03:37:38.820Z,80.71
2018-05-27T03:38:38.823Z,80.80
2018-05-27T03:39:38.827Z,80.51
2018-05-27T03:40:38.832Z,80.51
2018-05-27T03:41:38.836Z,80.32
2018-05-27T03:42:38.843Z,80.13
2018-05-27T03:43:38.843Z,79.94
2018-05-27T03:44:38.848Z,79.94
2018-05-27T03:45:38.852Z,79.94
2018-05-27T03:46:38.855Z,80.22
2018-05-27T03:47:38.859Z,80.36
2018-05-27T03:48:38.864Z,79.84
2018-05-27T03:49:38.869Z,79.79
2018-05-27T03:50:38.872Z,80.04
2018-05-27T03:51:38.876Z,79.84
2018-05-27T03:52:38.881Z,80.13
2018-05-27T03:53:38.884Z,79.84
2018-05-27T03:54:38.888Z,80.13
2018-05-27T03:55:38.893Z,80.32
2018-05-27T03:56:38.897Z,80.32
2018-05-27T03:57:38.899Z,80.07
2018-05-27T03:58:38.905Z,80.13
2018-05-27T03:59:38.909Z,80.32
2018-05-27T04:00:38.912Z,79.75
2018-05-27T04:01:38.918Z,79.75
2018-05-27T04:02:38.921Z,80.61
2018-05-27T04:03:38.925Z,80.04
2018-05-27T04:04:38.931Z,80.04
2018-05-27T04:05:38.935Z,80.13
2018-05-27T04:06:38.938Z,80.61
2018-05-27T04:07:38.948Z,80.42
2018-05-27T04:08:38.998Z,80.80
2018-05-27T04:09:38.950Z,80.90
2018-05-27T04:10:38.955Z,80.71
2018-05-27T04:11:38.961Z,80.99
2018-05-27T04:12:38.963Z,80.32
2018-05-27T04:13:38.967Z,80.99
2018-05-27T04:14:38.970Z,80.99
2018-05-27T04:15:38.976Z,80.99
2018-05-27T04:16:38.979Z,80.80
2018-05-27T04:17:38.983Z,80.80
2018-05-27T04:18:38.989Z,80.99
2018-05-27T04:19:38.991Z,80.80
2018-05-27T04:20:38.996Z,80.13
2018-05-27T04:21:39.003Z,80.61
2018-05-27T04:22:39.003Z,80.61
2018-05-27T04:23:39.010Z,80.80
2018-05-27T04:24:39.013Z,80.71
2018-05-27T04:25:39.016Z,80.71
2018-05-27T04:26:39.021Z,80.61
2018-05-27T04:27:39.029Z,80.65
2018-05-27T04:28:39.089Z,80.17
2018-05-27T04:29:39.034Z,79.98
2018-05-27T04:30:39.037Z,80.13
2018-05-27T04:31:39.045Z,80.36
2018-05-27T04:32:39.048Z,80.46
2018-05-27T04:33:39.051Z,80.46
2018-05-27T04:34:39.055Z,79.88
2018-05-27T04:35:39.062Z,80.17
2018-05-27T04:36:39.064Z,80.27
2018-05-27T04:37:39.068Z,79.88
2018-05-27T04:38:39.072Z,80.17
2018-05-27T04:39:39.075Z,80.36
2018-05-27T04:40:39.081Z,80.27
2018-05-27T04:41:39.086Z,80.46
2018-05-27T04:42:39.089Z,80.55
2018-05-27T04:43:39.094Z,80.36
2018-05-27T04:44:39.097Z,80.07
2018-05-27T04:45:39.103Z,79.98
2018-05-27T04:46:39.106Z,80.27
2018-05-27T04:47:39.112Z,80.36
2018-05-27T04:48:39.114Z,80.27
2018-05-27T04:49:39.120Z,79.88
2018-05-27T04:50:39.123Z,80.27
2018-05-27T04:51:39.131Z,80.55
2018-05-27T04:52:39.133Z,80.36
2018-05-27T04:53:39.136Z,80.46
2018-05-27T04:54:39.140Z,80.27
2018-05-27T04:55:39.146Z,80.46
2018-05-27T04:56:39.153Z,80.27
2018-05-27T04:57:39.155Z,80.07
2018-05-27T04:58:39.162Z,80.65
2018-05-27T04:59:39.163Z,80.17
2018-05-27T05:00:39.168Z,80.27
2018-05-27T05:01:39.173Z,80.46
2018-05-27T05:02:39.175Z,80.17
2018-05-27T05:03:39.182Z,80.65
2018-05-27T05:04:39.186Z,80.27
2018-05-27T05:05:39.193Z,79.88
2018-05-27T05:06:39.195Z,79.50
2018-05-27T05:07:39.198Z,79.40
2018-05-27T05:08:39.204Z,79.50
2018-05-27T05:09:39.209Z,80.27
2018-05-27T05:10:39.213Z,80.11
2018-05-27T05:11:39.218Z,80.17
2018-05-27T05:12:39.223Z,80.11
2018-05-27T05:13:39.230Z,79.48
2018-05-27T05:14:39.232Z,77.01
2018-05-27T05:15:39.238Z,74.78
2018-05-27T05:16:39.242Z,72.41
2018-05-27T05:17:39.248Z,71.09
2018-05-27T05:18:39.256Z,69.74
2018-05-27T05:19:39.259Z,69.10
2018-05-27T05:20:39.265Z,68.52
2018-05-27T05:21:39.271Z,68.23
2018-05-27T05:22:39.277Z,68.62
2018-05-27T05:23:39.284Z,67.94
2018-05-27T05:24:39.290Z,68.04
2018-05-27T05:25:39.297Z,69.16
2018-05-27T05:26:39.302Z,69.64
2018-05-27T05:27:39.314Z,70.09
2018-05-27T05:28:39.317Z,70.86
2018-05-27T05:29:39.322Z,71.02
2018-05-27T05:30:39.328Z,71.41
2018-05-27T05:31:39.335Z,72.47
2018-05-27T05:32:39.342Z,72.18
2018-05-27T05:33:39.350Z,72.56
2018-05-27T05:34:39.354Z,72.47
2018-05-27T05:35:39.361Z,72.37
2018-05-27T05:36:39.368Z,72.66
2018-05-27T05:37:39.374Z,72.66
2018-05-27T05:38:39.379Z,73.24
2018-05-27T05:39:39.386Z,73.88
2018-05-27T05:40:39.393Z,74.01
2018-05-27T05:41:39.399Z,73.88
2018-05-27T05:42:39.404Z,73.49
2018-05-27T05:43:39.458Z,73.78
2018-05-27T05:44:39.423Z,73.68
2018-05-27T05:45:39.426Z,74.36
2018-05-27T05:46:39.430Z,74.30
2018-05-27T05:47:39.437Z,74.65
2018-05-27T05:48:39.443Z,74.55
2018-05-27T05:49:39.450Z,74.26
2018-05-27T05:50:39.456Z,74.93
2018-05-27T05:51:39.462Z,75.51
2018-05-27T05:52:39.469Z,75.32
2018-05-27T05:53:39.475Z,75.99
2018-05-27T05:54:39.481Z,74.93
2018-05-27T05:55:39.487Z,75.13
2018-05-27T05:56:39.494Z,75.13
2018-05-27T05:57:39.501Z,75.32
2018-05-27T05:58:39.507Z,75.90
2018-05-27T05:59:39.515Z,75.71
2018-05-27T06:00:39.518Z,76.18
2018-05-27T06:01:39.525Z,76.15
2018-05-27T06:02:39.530Z,75.90
2018-05-27T06:03:39.536Z,76.48
2018-05-27T06:04:39.543Z,75.99
2018-05-27T06:05:39.550Z,75.03
2018-05-27T06:06:39.555Z,75.36
2018-05-27T06:07:39.565Z,74.68
2018-05-27T06:08:39.566Z,74.78
2018-05-27T06:09:39.575Z,74.49
2018-05-27T06:10:39.580Z,74.20
2018-05-27T06:11:39.587Z,74.58
2018-05-27T06:12:39.593Z,74.20
2018-05-27T06:13:39.652Z,74.58
2018-05-27T06:14:39.605Z,73.91
2018-05-27T06:15:39.611Z,73.91
2018-05-27T06:16:39.617Z,74.10
2018-05-27T06:17:39.624Z,73.85
2018-05-27T06:18:39.632Z,73.85
2018-05-27T06:19:39.641Z,74.05
2018-05-27T06:20:39.643Z,73.66
2018-05-27T06:21:39.650Z,73.95
2018-05-27T06:22:39.657Z,73.95
2018-05-27T06:23:39.662Z,73.89
2018-05-27T06:24:39.670Z,73.37
2018-05-27T06:25:39.690Z,73.37
2018-05-27T06:26:39.682Z,73.75
2018-05-27T06:27:39.689Z,73.95
2018-05-27T06:28:39.695Z,72.89
2018-05-27T06:29:39.701Z,72.69
2018-05-27T06:30:39.711Z,72.89
2018-05-27T06:31:39.720Z,73.18
2018-05-27T06:32:39.722Z,72.79
2018-05-27T06:33:39.728Z,73.85
2018-05-27T06:34:39.734Z,74.08
2018-05-27T06:35:39.741Z,73.31
2018-05-27T06:36:39.749Z,73.41
2018-05-27T06:37:39.755Z,73.50
2018-05-27T06:38:39.765Z,73.99
2018-05-27T06:39:39.767Z,73.11
2018-05-27T06:40:39.775Z,74.08
2018-05-27T06:41:39.781Z,72.73
2018-05-27T06:42:39.789Z,72.25
2018-05-27T06:43:39.794Z,72.83
2018-05-27T06:44:39.802Z,73.02
2018-05-27T06:45:39.810Z,72.25
2018-05-27T06:46:39.816Z,73.02
2018-05-27T06:47:39.822Z,73.31
2018-05-27T06:48:39.832Z,73.02
2018-05-27T06:49:39.836Z,72.28
2018-05-27T06:50:39.842Z,72.63
2018-05-27T06:51:39.849Z,72.34
2018-05-27T06:52:39.856Z,72.28
2018-05-27T06:53:39.862Z,72.28
2018-05-27T06:54:39.874Z,71.80
2018-05-27T06:55:39.877Z,72.09
2018-05-27T06:56:39.895Z,72.00
2018-05-27T06:57:39.891Z,72.22
2018-05-27T06:58:39.897Z,71.90
2018-05-27T06:59:39.903Z,71.94
2018-05-27T07:00:39.914Z,71.74
2018-05-27T07:01:39.919Z,70.48
2018-05-27T07:02:39.924Z,70.87
2018-05-27T07:03:39.933Z,70.78
2018-05-27T07:04:39.969Z,71.64
2018-05-27T07:05:39.948Z,71.74
2018-05-27T07:06:39.960Z,71.10
2018-05-27T07:07:39.966Z,71.00
2018-05-27T07:08:39.968Z,70.81
2018-05-27T07:09:39.979Z,71.00
2018-05-27T07:10:39.983Z,69.94
2018-05-27T07:11:40.033Z,71.20
2018-05-27T07:12:39.999Z,71.10
2018-05-27T07:13:40.006Z,70.72
2018-05-27T07:14:40.012Z,70.78
2018-05-27T07:15:40.018Z,70.72
2018-05-27T07:16:40.027Z,70.62
2018-05-27T07:17:40.035Z,70.78
2018-05-27T07:18:40.041Z,70.68
2018-05-27T07:19:40.049Z,71.48
2018-05-27T07:20:40.057Z,70.72
2018-05-27T07:21:40.064Z,71.00
2018-05-27T07:22:40.071Z,71.88
2018-05-27T07:23:40.082Z,69.68
2018-05-27T07:24:40.086Z,69.30
2018-05-27T07:25:40.093Z,69.40
2018-05-27T07:26:40.105Z,69.40
2018-05-27T07:27:40.108Z,69.46
2018-05-27T07:28:40.117Z,69.30
2018-05-27T07:29:40.125Z,69.74
2018-05-27T07:30:40.132Z,69.49
2018-05-27T07:31:40.139Z,69.10
2018-05-27T07:32:40.151Z,69.04
2018-05-27T07:33:40.155Z,67.63
2018-05-27T07:34:40.162Z,67.33
2018-05-27T07:35:40.171Z,66.60
2018-05-27T07:36:40.180Z,65.20
2018-05-27T07:37:40.190Z,61.91
2018-05-27T07:38:40.199Z,58.37
2018-05-27T07:39:40.209Z,56.49
2018-05-27T07:40:40.251Z,54.69
2018-05-27T07:41:40.230Z,53.55
2018-05-27T07:42:40.245Z,53.16
2018-05-27T07:43:40.252Z,53.67
2018-05-27T07:44:40.263Z,53.87
2018-05-27T07:45:40.275Z,53.02
2018-05-27T07:46:40.303Z,50.70
2018-05-27T07:47:40.299Z,50.09
2018-05-27T07:48:40.311Z,50.12
2018-05-27T07:49:40.326Z,50.19
2018-05-27T07:50:40.336Z,50.21
2018-05-27T07:51:40.351Z,49.99
2018-05-27T07:52:40.364Z,50.02
2018-05-27T07:53:40.376Z,50.21
2018-05-27T07:54:40.389Z,48.88
2018-05-27T07:55:40.403Z,48.97
2018-05-27T07:56:40.417Z,48.61
2018-05-27T07:57:40.431Z,47.92
2018-05-27T07:58:40.445Z,48.12
2018-05-27T07:59:40.460Z,48.22
2018-05-27T08:00:40.475Z,48.51
2018-05-27T08:01:40.489Z,48.07
2018-05-27T08:02:40.506Z,48.49
2018-05-27T08:03:40.517Z,48.00
2018-05-27T08:04:40.533Z,48.88
2018-05-27T08:05:40.548Z,47.53
2018-05-27T08:06:40.563Z,47.51
2018-05-27T08:07:40.578Z,47.80
2018-05-27T08:08:40.594Z,49.32
2018-05-27T08:09:40.609Z,49.63
2018-05-27T08:10:40.624Z,49.71
2018-05-27T08:11:40.640Z,49.85
2018-05-27T08:12:40.655Z,48.83
2018-05-27T08:13:40.671Z,47.31
2018-05-27T08:14:40.687Z,46.82
2018-05-27T08:15:40.704Z,45.82
2018-05-27T08:16:40.719Z,45.76
2018-05-27T08:17:40.736Z,45.16
2018-05-27T08:18:40.755Z,45.55
2018-05-27T08:19:40.784Z,45.75
2018-05-27T08:20:40.784Z,46.60
2018-05-27T08:21:40.800Z,46.72
2018-05-27T08:22:40.815Z,45.79
2018-05-27T08:23:40.832Z,44.91
2018-05-27T08:24:40.849Z,44.13
2018-05-27T08:25:40.865Z,44.34
2018-05-27T08:26:40.881Z,44.48
2018-05-27T08:27:40.896Z,43.19
2018-05-27T08:28:40.914Z,43.68
2018-05-27T08:29:40.932Z,44.03
2018-05-27T08:30:40.947Z,43.95
2018-05-27T08:31:40.966Z,43.98
2018-05-27T08:32:40.981Z,42.82
2018-05-27T08:33:41.001Z,42.52
2018-05-27T08:34:41.015Z,41.25
2018-05-27T08:35:41.031Z,42.03
2018-05-27T08:36:41.050Z,42.33
2018-05-27T08:37:41.067Z,43.02
2018-05-27T08:38:41.084Z,42.25
2018-05-27T08:39:41.101Z,42.21
2018-05-27T08:40:41.118Z,43.24
2018-05-27T08:41:41.136Z,43.81
2018-05-27T08:42:41.153Z,44.40
2018-05-27T08:43:41.170Z,44.89
2018-05-27T08:44:41.189Z,45.55
2018-05-27T08:45:41.207Z,44.23
2018-05-27T08:46:41.227Z,43.19
2018-05-27T08:47:41.241Z,42.23
2018-05-27T08:48:41.258Z,42.33
2018-05-27T08:49:41.277Z,42.70
2018-05-27T08:50:41.294Z,43.31
2018-05-27T08:51:41.313Z,42.72
2018-05-27T08:52:41.330Z,43.88
2018-05-27T08:53:41.349Z,42.99
2018-05-27T08:54:41.366Z,42.50
2018-05-27T08:55:41.384Z,42.29
2018-05-27T08:56:41.401Z,43.79
2018-05-27T08:57:41.420Z,43.93
2018-05-27T08:58:41.453Z,42.29
2018-05-27T08:59:41.458Z,42.21
2018-05-27T09:00:41.475Z,42.78
2018-05-27T09:01:41.493Z,42.60
2018-05-27T09:02:41.510Z,43.99
2018-05-27T09:03:41.588Z,43.99
2018-05-27T09:04:41.546Z,43.73
2018-05-27T09:05:41.565Z,43.24
2018-05-27T09:06:41.583Z,43.73
2018-05-27T09:07:41.600Z,44.81
2018-05-27T09:08:41.619Z,43.73
2018-05-27T09:09:41.636Z,43.85
2018-05-27T09:10:41.654Z,43.19
2018-05-27T09:11:41.672Z,42.65
2018-05-27T09:12:41.692Z,43.13
2018-05-27T09:13:41.711Z,42.25
2018-05-27T09:14:41.727Z,42.21
2018-05-27T09:15:41.747Z,42.62
2018-05-27T09:16:41.765Z,42.88
2018-05-27T09:17:41.784Z,43.95
2018-05-27T09:18:41.799Z,43.88
2018-05-27T09:19:41.819Z,42.50
2018-05-27T09:20:41.836Z,42.60
2018-05-27T09:21:41.858Z,43.85
2018-05-27T09:22:41.872Z,43.29
2018-05-27T09:23:41.892Z,43.46
2018-05-27T09:24:41.909Z,43.03
2018-05-27T09:25:41.929Z,44.55
2018-05-27T09:26:41.945Z,45.53
2018-05-27T09:27:41.964Z,45.82
2018-05-27T09:28:41.983Z,46.00
2018-05-27T09:29:42.001Z,46.07
2018-05-27T09:30:42.019Z,46.48
2018-05-27T09:31:42.037Z,46.14
2018-05-27T09:32:42.055Z,43.93
2018-05-27T09:33:42.075Z,44.10
2018-05-27T09:34:42.092Z,46.68
2018-05-27T09:35:42.108Z,46.31
2018-05-27T09:36:42.127Z,45.65
2018-05-27T09:37:42.143Z,46.21
2018-05-27T09:38:42.163Z,44.77
2018-05-27T09:39:42.179Z,45.37
2018-05-27T09:40:42.197Z,44.87
2018-05-27T09:41:42.214Z,45.36
2018-05-27T09:42:42.231Z,43.91
2018-05-27T09:43:42.249Z,45.18
2018-05-27T09:44:42.266Z,44.34
2018-05-27T09:45:42.284Z,42.31
2018-05-27T09:46:42.302Z,43.48
2018-05-27T09:47:42.317Z,42.76
2018-05-27T09:48:42.336Z,42.35
2018-05-27T09:49:42.353Z,43.66
2018-05-27T09:50:42.369Z,42.33
2018-05-27T09:51:42.387Z,41.35
2018-05-27T09:52:42.404Z,43.03
2018-05-27T09:53:42.423Z,43.81
2018-05-27T09:54:42.439Z,43.81
2018-05-27T09:55:42.457Z,45.04
2018-05-27T09:56:42.474Z,45.53
2018-05-27T09:57:42.490Z,45.16
2018-05-27T09:58:42.507Z,44.98
2018-05-27T09:59:42.526Z,44.40
2018-05-27T10:00:42.543Z,43.84
2018-05-27T10:01:42.564Z,43.63
2018-05-27T10:02:42.576Z,44.30
2018-05-27T10:03:42.598Z,44.94
2018-05-27T10:04:42.613Z,45.26
2018-05-27T10:05:42.626Z,43.93
2018-05-27T10:06:42.643Z,43.81
2018-05-27T10:07:42.659Z,43.59
2018-05-27T10:08:42.679Z,44.26
2018-05-27T10:09:42.694Z,44.45
2018-05-27T10:10:42.709Z,44.43
2018-05-27T10:11:42.778Z,46.59
2018-05-27T10:12:42.787Z,48.36
2018-05-27T10:13:42.760Z,46.85
2018-05-27T10:14:42.778Z,46.01
2018-05-27T10:15:42.792Z,44.52
2018-05-27T10:16:42.812Z,43.63
2018-05-27T10:17:42.825Z,43.63
2018-05-27T10:18:42.843Z,43.81
2018-05-27T10:19:42.857Z,43.85
2018-05-27T10:20:42.873Z,43.88
2018-05-27T10:21:42.892Z,42.99
2018-05-27T10:22:42.905Z,42.90
2018-05-27T10:23:42.921Z,42.11
2018-05-27T10:24:42.937Z,42.21
2018-05-27T10:25:42.954Z,42.50
2018-05-27T10:26:42.969Z,42.60
2018-05-27T10:27:42.985Z,42.78
2018-05-27T10:28:43.002Z,42.15
2018-05-27T10:29:43.018Z,42.17
2018-05-27T10:30:43.035Z,43.03
2018-05-27T10:31:43.050Z,43.99
2018-05-27T10:32:43.068Z,44.20
2018-05-27T10:33:43.081Z,42.88
2018-05-27T10:34:43.099Z,42.41
2018-05-27T10:35:43.112Z,40.76
2018-05-27T10:36:43.129Z,40.94
2018-05-27T10:37:43.145Z,41.88
2018-05-27T10:38:43.160Z,41.96
2018-05-27T10:39:43.177Z,41.41
2018-05-27T10:40:43.195Z,40.19
2018-05-27T10:41:43.210Z,41.25
2018-05-27T10:42:43.224Z,40.17
2018-05-27T10:43:43.240Z,38.90
2018-05-27T10:44:43.257Z,39.07
2018-05-27T10:45:43.272Z,38.39
2018-05-27T10:46:43.288Z,38.68
2018-05-27T10:47:43.304Z,40.63
2018-05-27T10:48:43.321Z,41.07
2018-05-27T10:49:43.336Z,40.29
2018-05-27T10:50:43.351Z,40.48
2018-05-27T10:51:43.366Z,39.94
2018-05-27T10:52:43.385Z,38.39
2018-05-27T10:53:43.403Z,37.90
2018-05-27T10:54:43.415Z,38.55
2018-05-27T10:55:43.431Z,39.23
2018-05-27T10:56:43.447Z,40.58
2018-05-27T10:57:43.463Z,41.36
2018-05-27T10:58:43.477Z,41.91
2018-05-27T10:59:43.494Z,41.80
2018-05-27T11:00:43.509Z,43.04
2018-05-27T11:01:43.525Z,44.58
2018-05-27T11:02:43.540Z,44.76
2018-05-27T11:03:43.555Z,45.42
2018-05-27T11:04:43.569Z,45.90
2018-05-27T11:05:43.605Z,46.22
2018-05-27T11:06:43.600Z,46.61
2018-05-27T11:07:43.617Z,46.41
2018-05-27T11:08:43.637Z,45.34
2018-05-27T11:09:43.644Z,45.03
2018-05-27T11:10:43.659Z,45.20
2018-05-27T11:11:43.673Z,45.20
2018-05-27T11:12:43.688Z,44.90
2018-05-27T11:13:43.701Z,45.20
2018-05-27T11:14:43.715Z,45.95
2018-05-27T11:15:43.730Z,46.86
2018-05-27T11:16:43.752Z,46.47
2018-05-27T11:17:43.757Z,46.00
2018-05-27T11:18:43.773Z,46.49
2018-05-27T11:19:43.784Z,46.66
2018-05-27T11:20:43.829Z,46.37
2018-05-27T11:21:43.812Z,45.44
2018-05-27T11:22:43.824Z,44.38
2018-05-27T11:23:43.839Z,45.15
2018-05-27T11:24:43.852Z,46.00
2018-05-27T11:25:43.865Z,46.12
2018-05-27T11:26:43.877Z,46.51
2018-05-27T11:27:43.889Z,46.49
2018-05-27T11:28:43.903Z,46.88
2018-05-27T11:29:43.918Z,46.70
2018-05-27T11:30:43.927Z,46.24
2018-05-27T11:31:43.941Z,44.97
2018-05-27T11:32:43.955Z,45.09
2018-05-27T11:33:43.969Z,44.70
2018-05-27T11:34:43.979Z,44.34
2018-05-27T11:35:43.993Z,44.34
2018-05-27T11:36:44.005Z,44.43
2018-05-27T11:37:44.020Z,44.43
2018-05-27T11:38:44.030Z,45.29
2018-05-27T11:39:44.046Z,44.12
2018-05-27T11:40:44.058Z,44.43
2018-05-27T11:41:44.069Z,44.24
2018-05-27T11:42:44.081Z,44.46
2018-05-27T11:43:44.094Z,46.76
2018-05-27T11:44:44.106Z,47.34
2018-05-27T11:45:44.120Z,47.56
2018-05-27T11:46:44.132Z,46.31
2018-05-27T11:47:44.144Z,46.02
2018-05-27T11:48:44.156Z,45.56
2018-05-27T11:49:44.170Z,46.07
2018-05-27T11:50:44.181Z,45.87
2018-05-27T11:51:44.194Z,45.41
2018-05-27T11:52:44.208Z,44.92
2018-05-27T11:53:44.220Z,44.73
2018-05-27T11:54:44.232Z,44.55
2018-05-27T11:55:44.244Z,44.31
2018-05-27T11:56:44.257Z,44.38
2018-05-27T11:57:44.269Z,44.48
2018-05-27T11:58:44.280Z,45.15
2018-05-27T11:59:44.293Z,45.17
2018-05-27T12:00:44.309Z,45.19
2018-05-27T12:01:44.363Z,45.39
2018-05-27T12:02:44.333Z,45.29
2018-05-27T12:03:44.344Z,44.90
2018-05-27T12:04:44.354Z,44.58
2018-05-27T12:05:44.366Z,45.75
2018-05-27T12:06:44.378Z,45.71
2018-05-27T12:07:44.394Z,45.34
2018-05-27T12:08:44.403Z,45.83
2018-05-27T12:09:44.649Z,45.15
2018-05-27T12:10:44.428Z,45.05
2018-05-27T12:11:44.481Z,45.65
2018-05-27T12:12:44.452Z,46.04
2018-05-27T12:13:44.464Z,46.61
2018-05-27T12:14:44.475Z,46.41
2018-05-27T12:15:44.486Z,45.92
2018-05-27T12:16:44.499Z,44.27
2018-05-27T12:17:44.511Z,44.56
2018-05-27T12:18:44.523Z,45.90
2018-05-27T12:19:44.537Z,45.71
2018-05-27T12:20:44.547Z,46.59
2018-05-27T12:21:44.560Z,46.49
2018-05-27T12:22:44.571Z,46.49
2018-05-27T12:23:44.583Z,45.59
2018-05-27T12:24:44.595Z,45.10
2018-05-27T12:25:44.606Z,44.03
2018-05-27T12:26:44.617Z,44.23
2018-05-27T12:27:44.630Z,43.84
2018-05-27T12:28:44.642Z,44.34
2018-05-27T12:29:44.711Z,45.12
2018-05-27T12:30:44.665Z,44.27
2018-05-27T12:31:44.676Z,46.00
2018-05-27T12:32:44.690Z,44.46
2018-05-27T12:33:44.701Z,44.07
2018-05-27T12:34:44.711Z,44.37
2018-05-27T12:35:44.725Z,44.48
2018-05-27T12:36:44.735Z,44.56
2018-05-27T12:37:44.749Z,45.15
2018-05-27T12:38:44.758Z,45.73
2018-05-27T12:39:44.773Z,46.00
2018-05-27T12:40:44.781Z,45.98
2018-05-27T12:41:44.793Z,44.81
2018-05-27T12:42:44.831Z,45.61
2018-05-27T12:43:44.816Z,45.71
2018-05-27T12:44:44.828Z,45.42
2018-05-27T12:45:44.841Z,45.49
2018-05-27T12:46:44.851Z,45.03
2018-05-27T12:47:44.862Z,43.64
2018-05-27T12:48:44.875Z,44.32
2018-05-27T12:49:44.886Z,43.57
2018-05-27T12:50:44.896Z,44.32
2018-05-27T12:51:44.909Z,44.03
2018-05-27T12:52:44.920Z,44.52